< Typhoon 197108 1971 Season Typhoon 197110 >
Typhoon 197109 (EMMA)
General InformationTrack Information on Google Maps || Disaster Info.ResourceGoogle EarthGE AnimationAtom FeedGeoJSON
Detalied Best Track (Time Zone = UTC)
Year Month Day Hour Lat. Long. Pressure (hPa) Wind (kt) Class Image Chart
1971 5 27 06 8.5 138.8 1006 0 2 -- Chart
1971 5 27 12 8.0 137.6 1006 0 2 -- Chart
1971 5 27 18 7.4 136.3 1006 0 2 -- Chart
1971 5 28 00 6.9 135.0 1004 0 2 -- Chart
1971 5 28 06 6.4 133.7 1002 0 2 -- Chart
1971 5 28 12 6.2 132.3 1000 0 9 -- Chart
1971 5 28 18 6.1 130.9 1000 0 9 -- Chart
1971 5 29 00 5.9 129.5 1000 0 9 -- Chart
1971 5 29 06 6.6 128.8 1000 0 9 -- Chart
1971 5 29 12 7.2 128.5 1004 0 2 -- Chart
1971 5 29 18 7.8 128.0 1004 0 2 -- Chart
1971 5 30 00 8.5 127.5 1004 0 2 -- Chart
1971 5 30 06 8.8 126.8 1004 0 2 -- Chart
1971 5 30 12 9.1 125.9 1006 0 2 -- Chart
1971 5 30 18 9.3 125.2 1006 0 2 -- Chart
1971 5 31 00 9.4 123.9 1006 0 2 -- Chart
1971 5 31 06 9.5 122.8 1006 0 2 -- Chart
1971 5 31 12 10.0 122.0 1006 0 2 -- Chart
1971 5 31 18 11.1 121.0 1006 0 2 -- Chart
1971 6 1 00 12.0 120.0 1006 0 2 -- Chart
1971 6 1 06 13.1 119.2 1006 0 2 -- Chart
1971 6 1 12 14.0 118.4 1006 0 2 -- Chart
1971 6 1 18 15.1 117.8 1006 0 2 -- Chart
1971 6 2 00 15.8 117.3 1006 0 2 -- Chart
1971 6 2 06 16.6 116.9 1006 0 2 -- Chart
1971 6 2 12 17.4 116.6 1006 0 2 -- Chart
1971 6 2 18 18.2 116.3 1006 0 2 -- Chart
1971 6 3 00 18.8 116.2 1006 0 2 -- Chart
Japan Meteorological Agency Best Track Data | Correction Date : 1989-06-01
< Typhoon 197108 1971 Season Typhoon 197110 >

Help